createdAt,value
2023-04-03T00:02:24.649Z,60.06
2023-04-03T00:04:51.169Z,60.27
2023-04-03T00:07:17.703Z,60.64
2023-04-03T00:09:44.175Z,59.80
2023-04-03T00:12:11.759Z,60.43
2023-04-03T00:14:38.195Z,59.76
2023-04-03T00:17:04.959Z,60.83
2023-04-03T00:19:31.567Z,61.32
2023-04-03T00:21:58.239Z,60.65
2023-04-03T00:24:24.895Z,61.05
2023-04-03T00:26:51.423Z,60.98
2023-04-03T00:29:17.889Z,61.15
2023-04-03T00:31:44.558Z,61.07
2023-04-03T00:34:11.155Z,60.88
2023-04-03T00:36:37.868Z,61.32
2023-04-03T00:39:04.495Z,60.70
2023-04-03T00:41:31.087Z,61.22
2023-04-03T00:43:57.541Z,60.19
2023-04-03T00:46:24.046Z,60.94
2023-04-03T00:48:50.795Z,60.54
2023-04-03T00:51:23.660Z,60.38
2023-04-03T00:53:53.801Z,60.05
2023-04-03T00:56:22.724Z,60.26
2023-04-03T00:58:58.795Z,60.75
2023-04-03T01:01:27.686Z,61.16
2023-04-03T01:03:54.698Z,60.78
2023-04-03T01:06:27.029Z,60.67
2023-04-03T01:08:53.605Z,60.31
2023-04-03T01:11:21.625Z,60.84
2023-04-03T01:13:48.167Z,60.66
2023-04-03T01:16:14.784Z,60.77
2023-04-03T01:18:41.507Z,60.77
2023-04-03T01:21:48.964Z,60.48
2023-04-03T01:24:15.431Z,60.61
2023-04-03T01:26:42.664Z,61.08
2023-04-03T01:29:09.316Z,60.35
2023-04-03T01:31:35.810Z,60.28
2023-04-03T01:34:04.290Z,60.25
2023-04-03T01:36:32.468Z,60.31
2023-04-03T01:39:00.302Z,60.19
2023-04-03T01:41:27.611Z,60.55
2023-04-03T01:43:54.093Z,61.08
2023-04-03T01:46:21.112Z,61.14
2023-04-03T01:48:47.822Z,60.20
2023-04-03T01:51:14.406Z,60.58
2023-04-03T01:53:41.582Z,60.77
2023-04-03T01:56:08.144Z,60.82
2023-04-03T01:58:34.682Z,61.08
2023-04-03T02:01:01.532Z,61.21
2023-04-03T02:03:28.239Z,61.55
2023-04-03T02:05:54.954Z,61.43
2023-04-03T02:08:21.586Z,61.05
2023-04-03T02:10:49.625Z,61.92
2023-04-03T02:13:16.724Z,61.41
2023-04-03T02:15:43.306Z,61.48
2023-04-03T02:18:10.419Z,61.72
2023-04-03T02:20:37.291Z,61.46
2023-04-03T02:23:04.539Z,61.54
2023-04-03T02:25:35.225Z,62.18
2023-04-03T02:28:04.272Z,61.93
2023-04-03T02:30:30.783Z,61.91
2023-04-03T02:32:57.446Z,62.09
2023-04-03T02:35:24.164Z,62.06
2023-04-03T02:37:50.818Z,61.83
2023-04-03T02:40:17.455Z,62.38
2023-04-03T02:42:44.250Z,62.13
2023-04-03T02:45:11.095Z,62.13
2023-04-03T02:47:37.739Z,61.71
2023-04-03T02:50:04.804Z,62.62
2023-04-03T02:52:31.295Z,62.04
2023-04-03T02:54:57.807Z,62.23
2023-04-03T02:57:24.484Z,62.55
2023-04-03T02:59:50.999Z,62.52
2023-04-03T03:02:17.538Z,62.86
2023-04-03T03:04:44.068Z,63.29
2023-04-03T03:07:10.622Z,63.45
2023-04-03T03:09:37.142Z,63.57
2023-04-03T03:12:04.561Z,63.56
2023-04-03T03:14:31.168Z,63.85
2023-04-03T03:16:57.636Z,63.21
2023-04-03T03:19:24.100Z,63.16
2023-04-03T03:21:51.259Z,63.65
2023-04-03T03:24:17.865Z,64.01
2023-04-03T03:26:44.445Z,64.34
2023-04-03T03:29:11.047Z,64.34
2023-04-03T03:31:37.773Z,64.73
2023-04-03T03:34:04.521Z,64.57
2023-04-03T03:36:31.585Z,64.69
2023-04-03T03:38:58.088Z,64.64
2023-04-03T03:41:24.568Z,64.86
2023-04-03T03:43:51.264Z,64.62
2023-04-03T03:46:17.855Z,65.12
2023-04-03T03:48:44.429Z,64.93
2023-04-03T03:51:10.905Z,65.27
2023-04-03T03:53:37.412Z,65.21
2023-04-03T03:56:04.894Z,65.35
2023-04-03T03:58:31.397Z,65.96
2023-04-03T04:00:57.918Z,66.14
2023-04-03T04:03:24.612Z,66.37
2023-04-03T04:05:51.303Z,66.55
2023-04-03T04:08:17.801Z,66.68
2023-04-03T04:10:44.274Z,66.50
2023-04-03T04:13:10.712Z,66.43
2023-04-03T04:15:37.492Z,66.58
2023-04-03T04:18:05.083Z,66.62
2023-04-03T04:20:31.564Z,66.66
2023-04-03T04:22:58.063Z,66.84
2023-04-03T04:25:24.585Z,66.79
2023-04-03T04:27:51.129Z,66.73
2023-04-03T04:30:17.712Z,66.76
2023-04-03T04:32:44.356Z,66.71
2023-04-03T04:35:11.122Z,66.67
2023-04-03T04:37:37.647Z,66.87
2023-04-03T04:40:05.645Z,66.63
2023-04-03T04:42:32.154Z,66.41
2023-04-03T04:44:58.687Z,66.14
2023-04-03T04:47:25.488Z,66.43
2023-04-03T04:49:52.350Z,65.84
2023-04-03T04:52:18.932Z,66.00
2023-04-03T04:54:45.719Z,66.31
2023-04-03T04:57:12.393Z,66.33
2023-04-03T04:59:39.020Z,65.82
2023-04-03T05:02:05.742Z,66.01
2023-04-03T05:04:32.599Z,65.30
2023-04-03T05:07:00.369Z,64.92
2023-04-03T05:09:27.198Z,65.29
2023-04-03T05:11:53.876Z,65.00
2023-04-03T05:14:20.607Z,64.98
2023-04-03T05:16:47.562Z,64.68
2023-04-03T05:19:14.269Z,64.26
2023-04-03T05:21:40.924Z,63.49
2023-04-03T05:24:10.047Z,63.23
2023-04-03T05:26:36.653Z,63.41
2023-04-03T05:29:04.945Z,63.08
2023-04-03T05:31:31.670Z,63.70
2023-04-03T05:33:58.861Z,62.39
2023-04-03T05:36:26.545Z,62.25
2023-04-03T05:38:53.760Z,62.45
2023-04-03T05:41:21.761Z,62.88
2023-04-03T05:43:48.536Z,62.81
2023-04-03T05:46:19.941Z,62.45
2023-04-03T05:48:46.608Z,62.25
2023-04-03T05:51:23.151Z,61.58
2023-04-03T05:53:52.849Z,62.26
2023-04-03T05:56:19.483Z,62.30
2023-04-03T05:58:46.120Z,61.82
2023-04-03T06:01:12.611Z,62.15
2023-04-03T06:03:40.979Z,62.49
2023-04-03T06:06:09.082Z,61.70
2023-04-03T06:08:36.058Z,61.59
2023-04-03T06:11:04.836Z,61.06
2023-04-03T06:13:32.441Z,60.79
2023-04-03T06:15:59.548Z,60.47
2023-04-03T06:18:26.255Z,61.26
2023-04-03T06:20:52.880Z,61.18
2023-04-03T06:23:19.464Z,60.20
2023-04-03T06:25:45.968Z,59.54
2023-04-03T06:28:12.737Z,60.28
2023-04-03T06:30:39.519Z,60.94
2023-04-03T06:33:06.879Z,59.67
2023-04-03T06:35:35.889Z,60.45
2023-04-03T06:38:03.867Z,59.58
2023-04-03T06:40:30.691Z,59.43
2023-04-03T06:42:57.301Z,59.14
2023-04-03T06:45:25.709Z,59.23
2023-04-03T06:47:52.183Z,58.75
2023-04-03T06:50:19.013Z,58.88
2023-04-03T06:52:45.831Z,59.13
2023-04-03T06:55:13.041Z,57.82
2023-04-03T06:57:40.023Z,58.25
2023-04-03T07:00:08.314Z,57.68
2023-04-03T07:02:34.937Z,57.49
2023-04-03T07:05:01.930Z,56.70
2023-04-03T07:07:28.674Z,55.75
2023-04-03T07:09:55.355Z,50.32
2023-04-03T07:12:22.120Z,45.84
2023-04-03T07:14:48.733Z,41.55
2023-04-03T07:17:15.552Z,38.16
2023-04-03T07:19:42.404Z,36.34
2023-04-03T07:22:09.816Z,36.12
2023-04-03T07:24:36.828Z,34.01
2023-04-03T07:27:09.655Z,31.38
2023-04-03T07:29:36.666Z,30.01
2023-04-03T07:32:05.303Z,29.23
2023-04-03T07:34:33.535Z,30.40
2023-04-03T07:37:01.235Z,28.98
2023-04-03T07:39:28.896Z,27.81
2023-04-03T07:41:57.602Z,27.56
2023-04-03T07:44:24.331Z,29.70
2023-04-03T07:46:51.577Z,26.81
2023-04-03T07:49:24.073Z,26.43
2023-04-03T07:51:51.217Z,25.76
2023-04-03T07:54:17.910Z,24.14
2023-04-03T07:56:45.046Z,25.62
2023-04-03T07:59:12.400Z,27.18
2023-04-03T08:01:39.221Z,26.49
2023-04-03T08:04:06.598Z,27.91
2023-04-03T08:06:45.579Z,28.56
2023-04-03T08:09:14.212Z,32.11
2023-04-03T08:11:41.127Z,32.59
2023-04-03T08:14:08.068Z,33.22
2023-04-03T08:16:34.984Z,30.90
2023-04-03T08:19:02.623Z,32.53
2023-04-03T08:21:29.981Z,32.92
2023-04-03T08:23:57.720Z,34.12
2023-04-03T08:26:24.425Z,35.64
2023-04-03T08:28:50.975Z,35.85
2023-04-03T08:31:19.992Z,37.36
2023-04-03T08:33:47.715Z,38.49
2023-04-03T08:36:20.731Z,38.43
2023-04-03T08:38:47.838Z,38.48
2023-04-03T08:41:31.648Z,38.87
2023-04-03T08:44:23.298Z,39.54
2023-04-03T08:46:52.939Z,39.33
2023-04-03T08:49:26.407Z,39.03
2023-04-03T08:51:53.817Z,39.49
2023-04-03T08:54:29.545Z,38.93
2023-04-03T08:56:56.557Z,40.61
2023-04-03T08:59:29.306Z,39.85
2023-04-03T09:01:57.564Z,39.50
2023-04-03T09:04:25.278Z,38.59
2023-04-03T09:06:55.967Z,38.73
2023-04-03T09:09:52.191Z,40.56
2023-04-03T09:12:46.837Z,39.37
2023-04-03T09:15:37.793Z,38.94
2023-04-03T09:18:28.719Z,40.04
2023-04-03T09:21:03.581Z,39.15
2023-04-03T09:23:48.535Z,40.46
2023-04-03T09:26:37.520Z,38.67
2023-04-03T09:29:08.156Z,38.49
2023-04-03T09:31:42.408Z,40.36
2023-04-03T09:34:23.732Z,40.78
2023-04-03T09:36:52.485Z,40.58
2023-04-03T09:39:28.205Z,39.39
2023-04-03T09:42:19.782Z,38.97
2023-04-03T09:44:55.951Z,38.92
2023-04-03T09:47:26.975Z,39.23
2023-04-03T09:50:21.183Z,39.48
2023-04-03T09:52:50.259Z,40.17
2023-04-03T09:55:19.536Z,40.49
2023-04-03T09:57:46.956Z,39.18
2023-04-03T10:00:26.456Z,39.38
2023-04-03T10:02:56.798Z,38.50
2023-04-03T10:05:28.216Z,39.52
2023-04-03T10:08:16.414Z,39.72
2023-04-03T10:10:48.286Z,40.48
2023-04-03T10:13:21.062Z,39.75
2023-04-03T10:16:03.833Z,39.19
2023-04-03T10:18:41.313Z,37.89
2023-04-03T10:21:26.680Z,38.74
2023-04-03T10:24:15.108Z,38.54
2023-04-03T10:26:58.985Z,37.67
2023-04-03T10:29:48.544Z,38.50
2023-04-03T10:32:40.376Z,39.38
2023-04-03T10:35:32.442Z,37.56
2023-04-03T10:38:17.183Z,38.31
2023-04-03T10:41:19.632Z,38.18
2023-04-03T10:43:57.592Z,38.43
2023-04-03T10:46:26.853Z,38.62
2023-04-03T10:48:59.450Z,38.28
2023-04-03T10:51:29.756Z,37.70
2023-04-03T10:54:21.300Z,37.96
2023-04-03T10:56:51.351Z,38.57
2023-04-03T10:59:29.919Z,39.49
2023-04-03T11:02:00.772Z,37.43
2023-04-03T11:04:31.391Z,35.75
2023-04-03T11:07:03.650Z,37.22
2023-04-03T11:09:38.419Z,37.24
2023-04-03T11:12:30.082Z,36.33
2023-04-03T11:14:57.576Z,36.20
2023-04-03T11:17:47.561Z,36.19
2023-04-03T11:20:28.831Z,36.96
2023-04-03T11:23:03.453Z,37.06
2023-04-03T11:25:32.015Z,38.42
2023-04-03T11:28:03.812Z,36.00
2023-04-03T11:30:49.415Z,36.66
2023-04-03T11:33:40.803Z,36.41
2023-04-03T11:36:26.327Z,35.94
2023-04-03T11:39:04.540Z,36.72
2023-04-03T11:41:32.740Z,36.61
2023-04-03T11:44:27.934Z,36.95
2023-04-03T11:47:01.845Z,36.91
2023-04-03T11:50:04.833Z,37.06
2023-04-03T11:52:43.772Z,36.32
2023-04-03T11:55:23.375Z,36.61
2023-04-03T11:57:59.329Z,37.10
2023-04-03T12:00:44.899Z,36.62
2023-04-03T12:03:26.919Z,36.36
2023-04-03T12:06:05.958Z,35.91
2023-04-03T12:08:44.256Z,36.80
2023-04-03T12:11:13.474Z,35.54
2023-04-03T12:13:55.154Z,36.96
2023-04-03T12:16:38.601Z,37.56
2023-04-03T12:19:29.300Z,36.26
2023-04-03T12:22:03.318Z,37.55
2023-04-03T12:24:35.760Z,35.56
2023-04-03T12:27:06.953Z,35.55
2023-04-03T12:29:33.472Z,35.19
2023-04-03T12:32:31.051Z,35.34
2023-04-03T12:35:12.384Z,36.07
2023-04-03T12:38:12.880Z,35.11
2023-04-03T12:40:39.301Z,34.70
2023-04-03T12:43:07.086Z,35.72
2023-04-03T12:46:12.998Z,35.06
2023-04-03T12:48:49.316Z,35.77
2023-04-03T12:51:19.987Z,36.66
2023-04-03T12:53:46.774Z,35.30
2023-04-03T12:56:28.215Z,34.77
2023-04-03T12:58:58.307Z,33.96
2023-04-03T13:01:26.288Z,34.80
2023-04-03T13:03:59.726Z,34.61
2023-04-03T13:06:35.004Z,34.75
2023-04-03T13:09:03.465Z,36.11
2023-04-03T13:11:36.492Z,35.62
2023-04-03T13:14:06.938Z,35.82
2023-04-03T13:16:34.702Z,35.62
2023-04-03T13:19:01.514Z,35.63
2023-04-03T13:21:33.304Z,35.95
2023-04-03T13:24:14.715Z,36.19
2023-04-03T13:26:43.125Z,36.28
2023-04-03T13:29:29.847Z,36.27
2023-04-03T13:31:58.436Z,36.34
2023-04-03T13:34:28.785Z,35.85
2023-04-03T13:36:59.366Z,36.22
2023-04-03T13:39:29.854Z,35.53
2023-04-03T13:41:59.206Z,35.82
2023-04-03T13:44:30.471Z,35.60
2023-04-03T13:47:03.312Z,35.29
2023-04-03T13:49:47.526Z,35.81
2023-04-03T13:52:32.092Z,35.57
2023-04-03T13:55:07.844Z,34.89
2023-04-03T13:57:36.855Z,34.67
2023-04-03T14:00:50.297Z,35.38
2023-04-03T14:03:38.977Z,35.43
2023-04-03T14:06:07.650Z,35.72
2023-04-03T14:08:42.335Z,35.90
2023-04-03T14:11:17.007Z,35.71
2023-04-03T14:13:45.034Z,35.43
2023-04-03T14:16:17.661Z,36.23
2023-04-03T14:18:46.172Z,35.79
2023-04-03T14:21:14.816Z,35.41
2023-04-03T14:23:41.764Z,35.78
2023-04-03T14:26:21.772Z,36.14
2023-04-03T14:28:50.883Z,36.18
2023-04-03T14:31:18.711Z,36.51
2023-04-03T14:33:46.371Z,37.06
2023-04-03T14:36:34.923Z,37.15
2023-04-03T14:39:02.305Z,37.50
2023-04-03T14:41:29.442Z,38.27
2023-04-03T14:43:56.586Z,38.10
2023-04-03T14:46:43.121Z,37.82
2023-04-03T14:49:26.508Z,38.04
2023-04-03T14:51:53.782Z,37.71
2023-04-03T14:54:26.699Z,37.78
2023-04-03T14:56:54.926Z,38.47
2023-04-03T14:59:22.528Z,38.94
2023-04-03T15:01:49.699Z,38.42
2023-04-03T15:04:19.554Z,38.20
2023-04-03T15:06:47.689Z,38.43
2023-04-03T15:09:27.349Z,38.71
2023-04-03T15:11:55.477Z,38.65
2023-04-03T15:16:52.419Z,38.09
2023-04-03T15:19:18.876Z,37.73
2023-04-03T15:21:45.643Z,38.47
2023-04-03T15:24:12.388Z,38.46
2023-04-03T15:26:39.125Z,38.79
2023-04-03T15:29:05.868Z,38.78
2023-04-03T15:31:32.862Z,38.98
2023-04-03T15:33:59.507Z,38.37
2023-04-03T15:36:34.171Z,38.65
2023-04-03T15:39:01.624Z,38.94
2023-04-03T15:41:28.108Z,38.55
2023-04-03T15:43:54.624Z,39.59
2023-04-03T15:46:21.306Z,39.50
2023-04-03T15:48:47.859Z,39.81
2023-04-03T15:51:14.384Z,40.15
2023-04-03T15:53:41.191Z,40.66
2023-04-03T15:56:09.163Z,40.28
2023-04-03T15:58:35.817Z,40.15
2023-04-03T16:01:04.621Z,39.94
2023-04-03T16:03:32.021Z,39.81
2023-04-03T16:05:58.752Z,40.02
2023-04-03T16:08:26.167Z,40.16
2023-04-03T16:10:52.733Z,40.08
2023-04-03T16:13:19.324Z,39.85
2023-04-03T16:15:46.035Z,40.06
2023-04-03T16:18:14.983Z,39.91
2023-04-03T16:20:41.853Z,39.60
2023-04-03T16:23:08.565Z,39.53
2023-04-03T16:25:35.317Z,39.46
2023-04-03T16:28:01.845Z,39.95
2023-04-03T16:30:28.731Z,40.40
2023-04-03T16:32:56.515Z,40.01
2023-04-03T16:35:23.573Z,39.86
2023-04-03T16:37:50.338Z,39.15
2023-04-03T16:40:16.925Z,39.56
2023-04-03T16:42:43.523Z,39.23
2023-04-03T16:45:10.695Z,39.45
2023-04-03T16:47:37.306Z,40.33
2023-04-03T16:50:04.946Z,40.28
2023-04-03T16:52:35.126Z,41.74
2023-04-03T16:55:01.974Z,42.60
2023-04-03T16:57:29.025Z,42.82
2023-04-03T16:59:56.291Z,42.23
2023-04-03T17:02:25.663Z,42.10
2023-04-03T17:04:55.937Z,42.32
2023-04-03T17:07:24.350Z,42.74
2023-04-03T17:09:51.221Z,42.53
2023-04-03T17:12:17.819Z,43.25
2023-04-03T17:14:44.420Z,42.54
2023-04-03T17:17:11.009Z,42.86
2023-04-03T17:19:38.146Z,42.83
2023-04-03T17:22:05.116Z,42.73
2023-04-03T17:24:31.617Z,43.68
2023-04-03T17:26:58.304Z,43.67
2023-04-03T17:29:24.978Z,43.22
2023-04-03T17:31:51.779Z,43.06
2023-04-03T17:34:18.512Z,43.13
2023-04-03T17:36:45.750Z,42.34
2023-04-03T17:39:12.534Z,42.96
2023-04-03T17:41:39.173Z,42.67
2023-04-03T17:44:06.236Z,42.63
2023-04-03T17:46:34.782Z,42.88
2023-04-03T17:49:04.272Z,42.52
2023-04-03T17:51:34.434Z,43.08
2023-04-03T17:54:01.107Z,43.20
2023-04-03T17:56:27.819Z,43.43
2023-04-03T17:58:56.542Z,44.34
2023-04-03T18:01:28.078Z,44.52
2023-04-03T18:03:57.103Z,44.74
2023-04-03T18:06:37.178Z,45.45
2023-04-03T18:09:10.723Z,45.61
2023-04-03T18:11:37.452Z,45.27
2023-04-03T18:14:05.823Z,45.40
2023-04-03T18:16:32.593Z,45.00
2023-04-03T18:19:20.549Z,45.54
2023-04-03T18:21:48.002Z,45.39
2023-04-03T18:24:16.544Z,46.00
2023-04-03T18:26:44.601Z,45.82
2023-04-03T18:29:11.940Z,46.32
2023-04-03T18:31:41.119Z,46.47
2023-04-03T18:34:07.698Z,46.48
2023-04-03T18:36:34.487Z,46.97
2023-04-03T18:39:00.965Z,47.70
2023-04-03T18:41:28.931Z,48.48
2023-04-03T18:43:56.781Z,48.08
2023-04-03T18:46:23.440Z,48.56
2023-04-03T18:48:49.916Z,48.94
2023-04-03T18:51:16.858Z,49.00
2023-04-03T18:53:43.372Z,49.67
2023-04-03T18:56:10.092Z,49.90
2023-04-03T18:58:36.810Z,49.82
2023-04-03T19:01:05.026Z,50.11
2023-04-03T19:03:32.604Z,50.03
2023-04-03T19:05:59.657Z,50.25
2023-04-03T19:08:26.115Z,50.44
2023-04-03T19:10:52.572Z,50.52
2023-04-03T19:13:19.131Z,50.82
2023-04-03T19:15:46.776Z,50.83
2023-04-03T19:18:13.380Z,50.67
2023-04-03T19:20:40.297Z,50.83
2023-04-03T19:23:08.598Z,50.65
2023-04-03T19:25:36.024Z,51.00
2023-04-03T19:28:03.233Z,50.78
2023-04-03T19:30:31.814Z,50.86
2023-04-03T19:32:58.403Z,51.60
2023-04-03T19:35:25.090Z,51.46
2023-04-03T19:37:53.356Z,51.31
2023-04-03T19:40:19.922Z,50.85
2023-04-03T19:42:46.484Z,50.94
2023-04-03T19:45:15.044Z,51.29
2023-04-03T19:47:41.767Z,51.64
2023-04-03T19:50:09.225Z,51.51
2023-04-03T19:52:35.877Z,51.57
2023-04-03T19:55:03.599Z,51.85
2023-04-03T19:57:30.916Z,52.19
2023-04-03T19:59:57.578Z,51.95
2023-04-03T20:02:24.114Z,52.13
2023-04-03T20:04:51.057Z,52.21
2023-04-03T20:07:17.816Z,51.88
2023-04-03T20:09:44.311Z,52.60
2023-04-03T20:12:10.968Z,52.60
2023-04-03T20:14:39.432Z,52.77
2023-04-03T20:17:05.913Z,52.87
2023-04-03T20:19:32.789Z,52.66
2023-04-03T20:22:00.964Z,52.77
2023-04-03T20:24:28.791Z,52.48
2023-04-03T20:26:57.633Z,52.35
2023-04-03T20:29:27.427Z,53.66
2023-04-03T20:31:55.268Z,53.36
2023-04-03T20:34:22.053Z,53.09
2023-04-03T20:36:50.121Z,52.83
2023-04-03T20:39:18.860Z,52.89
2023-04-03T20:41:45.926Z,52.76
2023-04-03T20:44:12.586Z,53.31
2023-04-03T20:46:52.313Z,53.25
2023-04-03T20:49:21.054Z,53.90
2023-04-03T20:51:47.816Z,53.98
2023-04-03T20:54:14.689Z,53.84
2023-04-03T20:56:41.567Z,54.92
2023-04-03T20:59:08.404Z,54.58
2023-04-03T21:01:36.024Z,54.63
2023-04-03T21:04:10.823Z,54.50
2023-04-03T21:07:14.816Z,55.05
2023-04-03T21:10:19.229Z,54.78
2023-04-03T21:13:23.710Z,54.91
2023-04-03T21:15:51.243Z,55.47
2023-04-03T21:19:08.625Z,56.03
2023-04-03T21:21:38.804Z,56.08
2023-04-03T21:24:09.685Z,55.45
2023-04-03T21:26:37.361Z,55.34
2023-04-03T21:29:06.486Z,55.13
2023-04-03T21:31:51.641Z,56.09
2023-04-03T21:34:19.918Z,56.37
2023-04-03T21:36:46.592Z,56.58
2023-04-03T21:39:13.085Z,56.33
2023-04-03T21:41:39.665Z,56.22
2023-04-03T21:44:06.247Z,56.20
2023-04-03T21:46:32.962Z,56.61
2023-04-03T21:48:59.498Z,57.45
2023-04-03T21:51:27.795Z,57.25
2023-04-03T21:53:54.661Z,56.60
2023-04-03T21:56:24.674Z,57.15
2023-04-03T21:58:51.770Z,57.23
2023-04-03T22:01:19.421Z,57.78
2023-04-03T22:03:47.090Z,57.63
2023-04-03T22:06:15.342Z,57.86
2023-04-03T22:08:42.489Z,58.27
2023-04-03T22:11:14.388Z,58.51
2023-04-03T22:13:42.182Z,58.14
2023-04-03T22:16:09.903Z,58.65
2023-04-03T22:18:36.509Z,58.43
2023-04-03T22:21:04.606Z,58.18
2023-04-03T22:23:31.704Z,58.68
2023-04-03T22:26:01.993Z,58.12
2023-04-03T22:28:30.349Z,58.23
2023-04-03T22:30:57.154Z,58.58
2023-04-03T22:33:23.656Z,59.01
2023-04-03T22:35:51.080Z,59.23
2023-04-03T22:38:17.855Z,59.66
2023-04-03T22:40:45.311Z,59.36
2023-04-03T22:43:12.435Z,59.25
2023-04-03T22:45:48.528Z,59.66
2023-04-03T22:48:15.363Z,59.05
2023-04-03T22:50:42.260Z,58.97
2023-04-03T22:53:09.167Z,59.02
2023-04-03T22:55:36.412Z,59.73
2023-04-03T22:58:03.115Z,59.93
2023-04-03T23:00:29.678Z,60.16
2023-04-03T23:02:56.540Z,59.95
2023-04-03T23:05:23.021Z,60.01
2023-04-03T23:07:49.548Z,60.04
2023-04-03T23:10:16.298Z,60.33
2023-04-03T23:12:42.793Z,60.51
2023-04-03T23:15:09.726Z,60.29
2023-04-03T23:17:37.106Z,60.65
2023-04-03T23:20:04.728Z,60.39
2023-04-03T23:22:32.013Z,60.55
2023-04-03T23:24:58.642Z,60.78
2023-04-03T23:27:25.137Z,61.19
2023-04-03T23:29:51.805Z,61.04
2023-04-03T23:32:18.284Z,61.53
2023-04-03T23:34:44.920Z,61.02
2023-04-03T23:37:12.467Z,60.81
2023-04-03T23:39:38.997Z,61.24
2023-04-03T23:42:10.830Z,61.75
2023-04-03T23:44:37.551Z,61.85
2023-04-03T23:47:04.382Z,61.82
2023-04-03T23:49:31.011Z,62.04
2023-04-03T23:51:57.728Z,62.01
2023-04-03T23:54:24.278Z,62.29
2023-04-03T23:56:50.853Z,62.68
2023-04-03T23:59:17.564Z,62.66
